createdAt,value
2023-02-28T00:00:12.463Z,12.88
2023-02-28T00:02:39.144Z,6.70
2023-02-28T00:05:06.250Z,12.52
2023-02-28T00:07:35.577Z,5.47
2023-02-28T00:10:02.135Z,7.20
2023-02-28T00:12:28.702Z,4.97
2023-02-28T00:14:55.152Z,4.35
2023-02-28T00:17:22.888Z,5.45
2023-02-28T00:19:49.625Z,6.60
2023-02-28T00:22:17.142Z,5.55
2023-02-28T00:24:43.655Z,6.43
2023-02-28T00:27:10.965Z,5.80
2023-02-28T00:29:37.585Z,3.83
2023-02-28T00:32:04.671Z,4.93
2023-02-28T00:34:31.159Z,4.45
2023-02-28T00:36:57.947Z,4.28
2023-02-28T00:39:24.421Z,4.55
2023-02-28T00:41:50.950Z,4.50
2023-02-28T00:44:22.437Z,4.43
2023-02-28T00:46:49.045Z,4.22
2023-02-28T00:49:17.683Z,4.88
2023-02-28T00:51:47.002Z,5.90
2023-02-28T00:54:13.679Z,6.32
2023-02-28T00:56:42.628Z,5.20
2023-02-28T00:59:09.121Z,4.80
2023-02-28T01:01:35.798Z,4.32
2023-02-28T01:04:02.382Z,4.90
2023-02-28T01:06:31.367Z,4.97
2023-02-28T01:08:57.778Z,5.00
2023-02-28T01:11:24.299Z,4.57
2023-02-28T01:13:50.744Z,4.85
2023-02-28T01:16:17.336Z,4.75
2023-02-28T01:18:43.910Z,3.90
2023-02-28T01:21:15.005Z,4.35
2023-02-28T01:23:41.844Z,4.70
2023-02-28T01:26:09.708Z,4.25
2023-02-28T01:28:36.147Z,4.88
2023-02-28T01:31:02.704Z,5.13
2023-02-28T01:33:29.730Z,5.07
2023-02-28T01:36:00.274Z,5.55
2023-02-28T01:38:27.265Z,6.30
2023-02-28T01:40:54.351Z,6.35
2023-02-28T01:43:30.230Z,5.10
2023-02-28T01:45:58.007Z,6.03
2023-02-28T01:48:30.058Z,5.38
2023-02-28T01:50:58.286Z,5.72
2023-02-28T01:53:28.656Z,5.90
2023-02-28T01:55:55.328Z,5.43
2023-02-28T01:58:21.944Z,6.20
2023-02-28T02:00:48.928Z,5.35
2023-02-28T02:03:19.962Z,6.45
2023-02-28T02:05:52.387Z,6.13
2023-02-28T02:08:21.145Z,6.10
2023-02-28T02:10:54.915Z,6.60
2023-02-28T02:13:24.291Z,6.63
2023-02-28T02:16:14.207Z,6.72
2023-02-28T02:18:43.746Z,6.18
2023-02-28T02:21:31.494Z,6.72
2023-02-28T02:23:58.117Z,6.88
2023-02-28T02:26:39.864Z,7.65
2023-02-28T02:29:09.402Z,7.38
2023-02-28T02:31:54.288Z,7.78
2023-02-28T02:34:35.139Z,7.75
2023-02-28T02:37:20.423Z,7.65
2023-02-28T02:40:09.973Z,8.77
2023-02-28T02:42:49.127Z,7.68
2023-02-28T02:45:26.961Z,8.25
2023-02-28T02:47:54.568Z,8.70
2023-02-28T02:50:24.982Z,8.38
2023-02-28T02:52:56.817Z,8.23
2023-02-28T02:55:24.092Z,8.88
2023-02-28T02:57:53.146Z,8.85
2023-02-28T03:00:22.627Z,8.48
2023-02-28T03:02:50.268Z,8.45
2023-02-28T03:05:26.433Z,9.10
2023-02-28T03:07:55.112Z,8.90
2023-02-28T03:10:29.617Z,10.10
2023-02-28T03:13:01.621Z,9.23
2023-02-28T03:15:32.063Z,10.07
2023-02-28T03:18:11.383Z,9.43
2023-02-28T03:20:37.930Z,9.48
2023-02-28T03:23:09.812Z,8.60
2023-02-28T03:25:42.196Z,9.55
2023-02-28T03:28:28.192Z,9.65
2023-02-28T03:30:54.873Z,9.63
2023-02-28T03:33:24.883Z,9.23
2023-02-28T03:36:13.799Z,10.05
2023-02-28T03:38:49.793Z,10.10
2023-02-28T03:41:16.349Z,10.15
2023-02-28T03:43:45.834Z,10.65
2023-02-28T03:46:13.806Z,10.05
2023-02-28T03:48:52.161Z,9.20
2023-02-28T03:51:23.842Z,10.73
2023-02-28T03:53:59.103Z,9.95
2023-02-28T03:56:51.089Z,10.50
2023-02-28T03:59:20.315Z,9.65
2023-02-28T04:01:48.521Z,10.70
2023-02-28T04:04:18.249Z,10.68
2023-02-28T04:06:45.572Z,11.25
2023-02-28T04:11:43.349Z,10.98
2023-02-28T04:14:10.752Z,10.52
2023-02-28T04:16:38.857Z,10.93
2023-02-28T04:19:06.301Z,11.57
2023-02-28T04:21:34.250Z,10.90
2023-02-28T04:24:01.751Z,10.57
2023-02-28T04:26:35.129Z,12.15
2023-02-28T04:29:02.353Z,11.52
2023-02-28T04:31:29.287Z,10.98
2023-02-28T04:33:56.121Z,10.85
2023-02-28T04:36:24.176Z,11.60
2023-02-28T04:38:50.785Z,11.80
2023-02-28T04:41:19.787Z,10.90
2023-02-28T04:43:46.288Z,12.73
2023-02-28T04:46:13.121Z,11.18
2023-02-28T04:48:39.973Z,10.90
2023-02-28T04:51:11.223Z,11.00
2023-02-28T04:53:40.882Z,12.98
2023-02-28T04:56:07.997Z,11.45
2023-02-28T04:58:34.796Z,11.13
2023-02-28T05:01:05.742Z,12.38
2023-02-28T05:03:34.811Z,12.48
2023-02-28T05:06:01.231Z,11.07
2023-02-28T05:08:30.674Z,11.45
2023-02-28T05:10:57.150Z,10.90
2023-02-28T05:13:24.007Z,12.77
2023-02-28T05:15:50.509Z,12.13
2023-02-28T05:18:17.018Z,11.93
2023-02-28T05:20:43.453Z,11.60
2023-02-28T05:23:12.192Z,11.73
2023-02-28T05:25:38.651Z,12.00
2023-02-28T05:28:05.396Z,12.25
2023-02-28T05:30:32.650Z,12.18
2023-02-28T05:32:59.639Z,11.77
2023-02-28T05:35:26.873Z,11.38
2023-02-28T05:37:53.652Z,13.40
2023-02-28T05:40:22.974Z,11.10
2023-02-28T05:42:51.228Z,11.45
2023-02-28T05:45:19.854Z,11.88
2023-02-28T05:47:46.489Z,12.10
2023-02-28T05:50:13.037Z,11.65
2023-02-28T05:52:39.479Z,14.27
2023-02-28T05:55:06.477Z,11.50
2023-02-28T05:57:33.056Z,11.77
2023-02-28T05:59:59.532Z,11.77
2023-02-28T06:02:26.152Z,12.00
2023-02-28T06:04:52.668Z,12.23
2023-02-28T06:07:19.185Z,13.98
2023-02-28T06:09:45.699Z,12.93
2023-02-28T06:12:12.180Z,12.23
2023-02-28T06:14:38.743Z,11.55
2023-02-28T06:17:05.396Z,12.18
2023-02-28T06:19:32.238Z,11.20
2023-02-28T06:21:59.380Z,13.05
2023-02-28T06:24:29.100Z,11.02
2023-02-28T06:26:55.674Z,13.18
2023-02-28T06:29:22.251Z,12.00
2023-02-28T06:31:49.111Z,11.68
2023-02-28T06:34:15.836Z,11.35
2023-02-28T06:36:42.836Z,11.38
2023-02-28T06:39:09.943Z,13.68
2023-02-28T06:41:54.235Z,11.82
2023-02-28T06:44:25.078Z,11.52
2023-02-28T06:46:51.646Z,11.43
2023-02-28T06:49:18.589Z,10.98
2023-02-28T06:51:48.449Z,11.10
2023-02-28T06:54:14.986Z,10.65
2023-02-28T06:56:41.483Z,10.30
2023-02-28T06:59:08.026Z,9.77
2023-02-28T07:01:34.794Z,10.18
2023-02-28T07:04:01.665Z,8.80
2023-02-28T07:06:29.150Z,9.07
2023-02-28T07:08:55.747Z,8.20
2023-02-28T07:11:26.793Z,8.75
2023-02-28T07:13:54.273Z,7.93
2023-02-28T07:16:20.940Z,8.38
2023-02-28T07:18:47.706Z,8.20
2023-02-28T07:21:14.532Z,8.23
2023-02-28T07:23:41.789Z,8.68
2023-02-28T07:26:12.480Z,9.00
2023-02-28T07:28:39.269Z,8.55
2023-02-28T07:31:06.437Z,9.65
2023-02-28T07:33:33.053Z,8.80
2023-02-28T07:36:06.670Z,8.98
2023-02-28T07:38:36.827Z,9.15
2023-02-28T07:41:06.519Z,8.95
2023-02-28T07:43:33.730Z,9.40
2023-02-28T07:46:04.563Z,9.20
2023-02-28T07:48:31.136Z,9.38
2023-02-28T07:50:58.074Z,9.35
2023-02-28T07:53:24.591Z,10.32
2023-02-28T07:55:51.033Z,9.90
2023-02-28T07:58:17.492Z,10.38
2023-02-28T08:00:44.070Z,9.38
2023-02-28T08:03:14.064Z,9.52
2023-02-28T08:05:41.226Z,9.60
2023-02-28T08:08:08.298Z,10.57
2023-02-28T08:10:38.145Z,9.57
2023-02-28T08:13:04.670Z,10.07
2023-02-28T08:15:31.108Z,10.05
2023-02-28T08:17:57.689Z,9.82
2023-02-28T08:20:24.708Z,10.52
2023-02-28T08:22:51.239Z,9.82
2023-02-28T08:25:20.620Z,9.88
2023-02-28T08:27:47.104Z,9.73
2023-02-28T08:30:14.469Z,10.32
2023-02-28T08:32:41.681Z,9.88
2023-02-28T08:35:10.152Z,10.73
2023-02-28T08:37:36.966Z,9.90
2023-02-28T08:40:05.209Z,9.93
2023-02-28T08:42:32.838Z,10.32
2023-02-28T08:44:59.296Z,11.27
2023-02-28T08:47:25.827Z,10.07
2023-02-28T08:49:54.935Z,10.68
2023-02-28T08:52:21.464Z,10.13
2023-02-28T08:54:47.910Z,10.77
2023-02-28T08:57:14.614Z,10.50
2023-02-28T08:59:41.151Z,10.30
2023-02-28T09:02:09.619Z,10.25
2023-02-28T09:04:36.115Z,10.52
2023-02-28T09:07:02.583Z,10.75
2023-02-28T09:09:29.058Z,10.40
2023-02-28T09:11:56.841Z,10.60
2023-02-28T09:14:23.366Z,10.27
2023-02-28T09:16:50.179Z,9.65
2023-02-28T09:19:19.008Z,10.80
2023-02-28T09:21:45.471Z,9.23
2023-02-28T09:24:14.584Z,9.38
2023-02-28T09:26:47.292Z,10.00
2023-02-28T09:29:22.254Z,9.60
2023-02-28T09:31:48.784Z,10.27
2023-02-28T09:34:18.546Z,9.50
2023-02-28T09:36:46.438Z,8.95
2023-02-28T09:39:15.433Z,9.50
2023-02-28T09:41:51.567Z,9.63
2023-02-28T09:44:30.041Z,9.10
2023-02-28T09:47:06.632Z,8.93
2023-02-28T09:49:38.147Z,9.20
2023-02-28T09:52:04.644Z,8.90
2023-02-28T09:54:32.811Z,8.30
2023-02-28T09:57:06.796Z,9.52
2023-02-28T09:59:39.446Z,8.57
2023-02-28T10:02:24.196Z,9.05
2023-02-28T10:05:02.708Z,8.63
2023-02-28T10:07:41.458Z,9.00
2023-02-28T10:10:16.325Z,9.50
2023-02-28T10:12:46.607Z,9.35
2023-02-28T10:15:17.129Z,9.00
2023-02-28T10:17:55.676Z,8.82
2023-02-28T10:20:34.879Z,9.20
2023-02-28T10:23:20.270Z,9.77
2023-02-28T10:25:51.110Z,9.05
2023-02-28T10:28:18.998Z,8.90
2023-02-28T10:30:49.709Z,8.45
2023-02-28T10:33:20.176Z,9.88
2023-02-28T10:35:46.757Z,9.48
2023-02-28T10:38:24.353Z,8.70
2023-02-28T10:40:51.561Z,9.27
2023-02-28T10:43:18.005Z,9.23
2023-02-28T10:45:58.677Z,9.20
2023-02-28T10:48:33.838Z,9.10
2023-02-28T10:51:00.672Z,8.73
2023-02-28T10:54:00.050Z,8.82
2023-02-28T10:56:27.383Z,9.02
2023-02-28T10:59:04.576Z,8.52
2023-02-28T11:01:31.431Z,9.80
2023-02-28T11:03:58.438Z,8.70
2023-02-28T11:06:31.650Z,9.27
2023-02-28T11:09:07.862Z,9.45
2023-02-28T11:11:43.232Z,9.20
2023-02-28T11:14:19.607Z,9.57
2023-02-28T11:16:46.160Z,9.32
2023-02-28T11:19:18.775Z,10.35
2023-02-28T11:21:49.251Z,9.60
2023-02-28T11:24:15.772Z,9.80
2023-02-28T11:26:44.346Z,9.93
2023-02-28T11:29:18.433Z,9.38
2023-02-28T11:31:44.956Z,9.35
2023-02-28T11:34:28.502Z,9.80
2023-02-28T11:36:59.184Z,8.80
2023-02-28T11:39:26.384Z,9.23
2023-02-28T11:41:59.063Z,9.68
2023-02-28T11:44:44.480Z,9.88
2023-02-28T11:47:20.226Z,9.48
2023-02-28T11:49:49.453Z,9.15
2023-02-28T11:52:22.221Z,10.00
2023-02-28T11:54:59.618Z,8.67
2023-02-28T11:57:36.753Z,9.45
2023-02-28T12:00:12.311Z,8.80
2023-02-28T12:02:41.872Z,9.38
2023-02-28T12:05:20.330Z,9.27
2023-02-28T12:07:51.914Z,9.45
2023-02-28T12:10:18.334Z,8.30
2023-02-28T12:12:49.034Z,8.85
2023-02-28T12:15:26.476Z,9.32
2023-02-28T12:17:53.369Z,9.60
2023-02-28T12:20:32.127Z,9.27
2023-02-28T12:22:58.743Z,9.30
2023-02-28T12:25:45.789Z,9.45
2023-02-28T12:28:13.244Z,9.02
2023-02-28T12:30:42.258Z,8.73
2023-02-28T12:33:10.318Z,8.82
2023-02-28T12:35:44.407Z,9.10
2023-02-28T12:38:18.739Z,9.27
2023-02-28T12:40:51.711Z,9.05
2023-02-28T12:43:19.307Z,8.82
2023-02-28T12:45:49.643Z,9.20
2023-02-28T12:48:20.938Z,9.25
2023-02-28T12:50:48.446Z,8.93
2023-02-28T12:53:27.721Z,8.80
2023-02-28T12:55:57.408Z,9.13
2023-02-28T12:58:29.807Z,9.60
2023-02-28T13:00:59.371Z,9.68
2023-02-28T13:03:49.270Z,9.23
2023-02-28T13:06:24.861Z,9.13
2023-02-28T13:09:04.486Z,9.20
2023-02-28T13:11:33.421Z,9.50
2023-02-28T13:14:01.624Z,9.43
2023-02-28T13:16:28.240Z,9.35
2023-02-28T13:19:09.468Z,8.85
2023-02-28T13:21:43.178Z,9.05
2023-02-28T13:26:39.321Z,8.93
2023-02-28T13:29:11.905Z,9.20
2023-02-28T13:32:00.085Z,9.73
2023-02-28T13:34:26.960Z,9.00
2023-02-28T13:37:13.438Z,9.02
2023-02-28T13:39:39.895Z,9.07
2023-02-28T13:42:28.274Z,9.10
2023-02-28T13:45:04.017Z,10.10
2023-02-28T13:47:31.588Z,9.07
2023-02-28T13:50:17.779Z,8.65
2023-02-28T13:53:03.206Z,9.43
2023-02-28T13:55:38.469Z,8.80
2023-02-28T13:58:13.771Z,8.48
2023-02-28T14:00:46.830Z,9.35
2023-02-28T14:03:29.413Z,8.95
2023-02-28T14:06:14.871Z,9.18
2023-02-28T14:08:49.348Z,8.95
2023-02-28T14:11:25.683Z,9.38
2023-02-28T14:13:52.469Z,8.93
2023-02-28T14:16:22.185Z,9.95
2023-02-28T14:19:00.013Z,9.02
2023-02-28T14:21:29.878Z,8.88
2023-02-28T14:23:56.811Z,9.73
2023-02-28T14:26:23.244Z,9.63
2023-02-28T14:29:02.740Z,9.50
2023-02-28T14:31:30.882Z,9.20
2023-02-28T14:34:06.571Z,9.13
2023-02-28T14:36:33.067Z,9.05
2023-02-28T14:39:02.314Z,9.38
2023-02-28T14:41:31.853Z,9.32
2023-02-28T14:44:01.259Z,8.68
2023-02-28T14:46:38.707Z,9.10
2023-02-28T14:49:13.363Z,9.10
2023-02-28T14:51:39.915Z,9.35
2023-02-28T14:54:08.794Z,9.73
2023-02-28T14:56:37.282Z,9.25
2023-02-28T14:59:04.249Z,9.35
2023-02-28T15:01:32.277Z,9.48
2023-02-28T15:04:02.437Z,9.48
2023-02-28T15:06:31.850Z,9.15
2023-02-28T15:09:30.812Z,9.30
2023-02-28T15:11:57.291Z,9.38
2023-02-28T15:14:23.883Z,9.40
2023-02-28T15:16:56.518Z,10.13
2023-02-28T15:19:29.532Z,9.70
2023-02-28T15:21:59.852Z,9.93
2023-02-28T15:24:31.342Z,9.82
2023-02-28T15:27:00.929Z,9.50
2023-02-28T15:29:28.589Z,9.13
2023-02-28T15:32:01.465Z,9.30
2023-02-28T15:34:43.495Z,9.47
2023-02-28T15:37:29.504Z,10.07
2023-02-28T15:39:56.752Z,9.57
2023-02-28T15:42:24.739Z,42.85
2023-02-28T15:44:51.285Z,88.10
2023-02-28T15:47:17.740Z,174.57
2023-02-28T15:49:54.811Z,38.70
2023-02-28T15:52:29.414Z,18.83
2023-02-28T15:54:56.058Z,10.48
2023-02-28T15:57:24.352Z,11.82
2023-02-28T16:00:01.891Z,9.77
2023-02-28T16:02:33.366Z,10.45
2023-02-28T16:04:59.903Z,9.40
2023-02-28T16:07:26.529Z,9.75
2023-02-28T16:09:55.423Z,9.40
2023-02-28T16:12:25.628Z,9.38
2023-02-28T16:14:55.189Z,10.90
2023-02-28T16:17:22.923Z,10.18
2023-02-28T16:19:49.462Z,10.10
2023-02-28T16:22:15.952Z,11.30
2023-02-28T16:24:42.571Z,11.02
2023-02-28T16:27:17.390Z,11.00
2023-02-28T16:29:43.899Z,10.25
2023-02-28T16:32:13.041Z,10.10
2023-02-28T16:34:39.561Z,10.05
2023-02-28T16:37:11.039Z,9.48
2023-02-28T16:39:37.558Z,9.68
2023-02-28T16:42:04.858Z,9.45
2023-02-28T16:44:33.861Z,10.45
2023-02-28T16:47:04.254Z,11.00
2023-02-28T16:49:30.830Z,11.23
2023-02-28T16:51:57.301Z,13.25
2023-02-28T16:54:23.762Z,18.67
2023-02-28T16:56:50.630Z,12.18
2023-02-28T16:59:20.525Z,11.77
2023-02-28T17:01:47.077Z,13.60
2023-02-28T17:04:16.700Z,13.98
2023-02-28T17:06:43.196Z,12.88
2023-02-28T17:09:16.423Z,13.30
2023-02-28T17:11:42.916Z,13.27
2023-02-28T17:14:09.438Z,12.90
2023-02-28T17:16:37.507Z,13.38
2023-02-28T17:19:05.418Z,13.50
2023-02-28T17:21:35.297Z,21.83
2023-02-28T17:24:01.733Z,14.98
2023-02-28T17:26:29.150Z,13.57
2023-02-28T17:28:56.869Z,14.05
2023-02-28T17:31:29.029Z,13.38
2023-02-28T17:33:56.204Z,14.90
2023-02-28T17:36:24.064Z,13.98
2023-02-28T17:38:50.775Z,14.18
2023-02-28T17:41:19.712Z,14.05
2023-02-28T17:43:46.165Z,13.20
2023-02-28T17:46:21.364Z,13.70
2023-02-28T17:48:51.891Z,15.65
2023-02-28T17:51:19.221Z,14.05
2023-02-28T17:53:49.085Z,15.80
2023-02-28T17:56:20.731Z,13.20
2023-02-28T17:58:47.258Z,13.88
2023-02-28T18:01:16.211Z,15.60
2023-02-28T18:03:42.998Z,14.98
2023-02-28T18:06:17.450Z,13.68
2023-02-28T18:08:44.050Z,14.10
2023-02-28T18:11:18.185Z,13.98
2023-02-28T18:13:49.352Z,14.20
2023-02-28T18:16:16.615Z,14.20
2023-02-28T18:18:45.896Z,13.68
2023-02-28T18:21:13.591Z,14.63
2023-02-28T18:23:47.969Z,15.82
2023-02-28T18:26:15.474Z,16.00
2023-02-28T18:28:42.711Z,17.30
2023-02-28T18:31:09.622Z,14.73
2023-02-28T18:33:36.125Z,16.65
2023-02-28T18:36:05.322Z,15.80
2023-02-28T18:38:31.883Z,15.77
2023-02-28T18:40:59.409Z,15.23
2023-02-28T18:43:26.624Z,14.65
2023-02-28T18:45:53.547Z,20.55
2023-02-28T18:48:20.130Z,17.98
2023-02-28T18:50:47.194Z,14.90
2023-02-28T18:53:13.859Z,17.75
2023-02-28T18:55:40.371Z,19.58
2023-02-28T18:58:07.052Z,20.63
2023-02-28T19:00:36.914Z,21.48
2023-02-28T19:03:05.414Z,18.33
2023-02-28T19:05:34.541Z,19.98
2023-02-28T19:08:01.982Z,22.83
2023-02-28T19:10:28.513Z,17.90
2023-02-28T19:12:55.701Z,16.20
2023-02-28T19:15:22.555Z,29.73
2023-02-28T19:17:49.087Z,39.25
2023-02-28T19:20:18.069Z,33.55
2023-02-28T19:22:44.568Z,16.88
2023-02-28T19:25:13.604Z,16.58
2023-02-28T19:27:40.075Z,19.73
2023-02-28T19:30:07.499Z,19.77
2023-02-28T19:32:34.188Z,21.40
2023-02-28T19:35:02.616Z,18.77
2023-02-28T19:37:31.245Z,16.60
2023-02-28T19:39:58.777Z,21.95
2023-02-28T19:42:33.074Z,14.27
2023-02-28T19:45:02.171Z,18.08
2023-02-28T19:47:30.672Z,14.30
2023-02-28T19:49:57.567Z,14.50
2023-02-28T19:52:25.110Z,14.93
2023-02-28T19:54:51.829Z,15.73
2023-02-28T19:57:18.542Z,18.92
2023-02-28T19:59:45.145Z,15.88
2023-02-28T20:02:15.757Z,15.88
2023-02-28T20:04:42.742Z,14.30
2023-02-28T20:07:09.358Z,15.13
2023-02-28T20:09:37.935Z,13.90
2023-02-28T20:12:07.164Z,14.55
2023-02-28T20:14:35.944Z,14.55
2023-02-28T20:17:02.554Z,13.60
2023-02-28T20:19:29.173Z,14.07
2023-02-28T20:21:55.754Z,13.85
2023-02-28T20:24:25.985Z,15.23
2023-02-28T20:26:57.525Z,14.52
2023-02-28T20:29:24.313Z,14.73
2023-02-28T20:31:50.821Z,15.35
2023-02-28T20:34:17.961Z,13.73
2023-02-28T20:36:44.497Z,14.18
2023-02-28T20:39:11.060Z,14.10
2023-02-28T20:41:39.644Z,18.42
2023-02-28T20:44:06.617Z,15.27
2023-02-28T20:46:34.694Z,14.82
2023-02-28T20:49:03.751Z,14.60
2023-02-28T20:51:30.237Z,14.63
2023-02-28T20:53:56.835Z,14.68
2023-02-28T20:56:27.172Z,15.50
2023-02-28T20:58:55.935Z,14.85
2023-02-28T21:01:26.273Z,14.77
2023-02-28T21:04:01.202Z,14.45
2023-02-28T21:06:31.585Z,15.43
2023-02-28T21:08:58.513Z,15.48
2023-02-28T21:11:31.213Z,14.57
2023-02-28T21:14:02.171Z,14.35
2023-02-28T21:16:29.784Z,15.10
2023-02-28T21:18:56.533Z,14.45
2023-02-28T21:21:24.434Z,14.27
2023-02-28T21:23:54.313Z,14.10
2023-02-28T21:26:24.262Z,15.30
2023-02-28T21:28:51.732Z,19.80
2023-02-28T21:31:19.692Z,15.45
2023-02-28T21:33:46.622Z,14.63
2023-02-28T21:36:13.300Z,15.82
2023-02-28T21:38:40.318Z,14.55
2023-02-28T21:41:07.631Z,14.70
2023-02-28T21:43:34.212Z,14.98
2023-02-28T21:46:04.189Z,15.45
2023-02-28T21:48:30.742Z,14.65
2023-02-28T21:50:58.284Z,15.35
2023-02-28T21:53:25.101Z,16.55
2023-02-28T21:55:51.585Z,17.42
2023-02-28T21:58:18.188Z,15.88
2023-02-28T22:00:46.071Z,15.20
2023-02-28T22:03:15.642Z,15.07
2023-02-28T22:05:42.469Z,16.23
2023-02-28T22:08:08.903Z,18.48
2023-02-28T22:10:35.781Z,16.42
2023-02-28T22:13:03.664Z,15.20
2023-02-28T22:15:35.478Z,15.07
2023-02-28T22:18:01.959Z,15.05
2023-02-28T22:20:28.467Z,14.50
2023-02-28T22:22:55.101Z,15.45
2023-02-28T22:25:21.595Z,16.20
2023-02-28T22:27:48.082Z,14.80
2023-02-28T22:30:14.902Z,15.40
2023-02-28T22:32:41.366Z,14.13
2023-02-28T22:35:08.090Z,15.13
2023-02-28T22:37:34.846Z,16.33
2023-02-28T22:40:01.320Z,16.35
2023-02-28T22:42:27.803Z,14.13
2023-02-28T22:44:54.318Z,14.95
2023-02-28T22:47:22.200Z,15.25
2023-02-28T22:49:51.184Z,15.18
2023-02-28T22:52:17.829Z,15.35
2023-02-28T22:54:44.286Z,15.13
2023-02-28T22:57:11.861Z,15.05
2023-02-28T22:59:40.652Z,14.43
2023-02-28T23:02:07.145Z,15.07
2023-02-28T23:04:33.688Z,15.40
2023-02-28T23:07:00.151Z,15.82
2023-02-28T23:09:26.667Z,14.70
2023-02-28T23:11:55.208Z,15.68
2023-02-28T23:14:24.007Z,14.63
2023-02-28T23:16:52.411Z,15.15
2023-02-28T23:19:26.654Z,14.95
2023-02-28T23:21:53.568Z,14.30
2023-02-28T23:24:21.976Z,14.18
2023-02-28T23:26:50.007Z,14.88
2023-02-28T23:29:17.714Z,15.45
2023-02-28T23:31:44.441Z,14.38
2023-02-28T23:34:11.313Z,15.27
2023-02-28T23:36:38.119Z,15.13
2023-02-28T23:39:04.706Z,15.35
2023-02-28T23:41:31.761Z,15.38
2023-02-28T23:43:58.239Z,14.70
2023-02-28T23:46:27.165Z,14.93
2023-02-28T23:48:53.628Z,14.23
2023-02-28T23:51:21.126Z,15.23
2023-02-28T23:53:48.963Z,14.35
2023-02-28T23:56:16.677Z,15.63
2023-02-28T23:58:43.809Z,15.20
